»·PEaware :: SWA979 KLAX-KLAS

SWA979 :: KLAX-KLAS

FLIGHT INFORMATION

Flight Status: Arrived
Operator:
Southwest Airlines
More flights by this operator :: More flights under this callsign
Pilot: Anonymous 34646 (34646)
Aircraft: BOEING 737-800
(B738)
More flights by this aircraft type
Origin: KLAX Los Angeles Intl
United States
Destination: KLAS Harry Reid Intl
United States
More flights between these airports :: More routes between these airports
Route: ORCKA5 MISEN RNDRZ1
File this flight plan on PilotEdge
Remarks: RMK / SIMBRIEF
Altitude:
(Current/Filed)
27,000ft
Speed:
(Current/Filed)
460kts
Departed: 23-Jun-21 08:49 AM
Arrived: 23-Jun-21 09:34 AM
Distance/Time
Traveled:
205nm/0:45
Distance/Time
To Go:
Arrived

Flight Plot

Page will automatically refresh every two minutes.

Flight plan parsing failed; only flown route is shown


Map Options




Map Legend


Flown Route
Filed Route
Departure Airport
Arrival Airport
Navaid (VOR, NDB)
Fix

Horizontal Profiles

Position Reports

Time Latitude Longitude Heading Altitude Ground
Speed
23-Jun-21 08:23 33.946704 -118.401845 83 134ft 0kts
23-Jun-21 08:24 33.946704 -118.401845 83 134ft 0kts
23-Jun-21 08:25 33.946704 -118.401845 83 134ft 0kts
23-Jun-21 08:26 33.946704 -118.401845 83 134ft 0kts
23-Jun-21 08:27 33.946704 -118.401845 83 134ft 0kts
23-Jun-21 08:28 33.946704 -118.401845 83 134ft 0kts
23-Jun-21 08:29 33.946704 -118.401845 83 134ft 0kts
23-Jun-21 08:30 33.946704 -118.401845 83 134ft 0kts
23-Jun-21 08:31 33.946704 -118.401845 83 134ft 0kts
23-Jun-21 08:32 33.946704 -118.401845 83 134ft 0kts
23-Jun-21 08:33 33.946704 -118.401845 83 134ft 0kts
23-Jun-21 08:34 33.946704 -118.401845 83 134ft 0kts
23-Jun-21 08:35 33.946704 -118.401845 83 134ft 0kts
23-Jun-21 08:36 33.946704 -118.401845 83 134ft 0kts
23-Jun-21 08:37 33.946704 -118.401845 83 134ft 0kts
23-Jun-21 08:38 33.946681 -118.402064 83 134ft 2kts
23-Jun-21 08:39 33.946630 -118.402568 82 134ft 0kts
23-Jun-21 08:40 33.946630 -118.402568 82 134ft 0kts
23-Jun-21 08:41 33.946630 -118.402568 82 134ft 0kts
23-Jun-21 08:42 33.946630 -118.402568 82 134ft 0kts
23-Jun-21 08:43 33.946630 -118.402568 82 134ft 0kts
23-Jun-21 08:44 33.946814 -118.402534 331 134ft 2kts
23-Jun-21 08:45 33.948824 -118.402996 32 134ft 6kts
23-Jun-21 08:46 33.949111 -118.402024 45 134ft 0kts
23-Jun-21 08:47 33.949515 -118.401833 353 134ft 8kts
23-Jun-21 08:48 33.949176 -118.411599 262 134ft 117kts
23-Jun-21 08:49 33.943525 -118.466759 263 2117ft 202kts
23-Jun-21 08:50 33.937156 -118.543095 263 4750ft 255kts
23-Jun-21 08:51 33.930465 -118.634751 263 7831ft 284kts
23-Jun-21 08:52 33.914371 -118.726541 218 10416ft 284kts
23-Jun-21 08:53 33.853908 -118.697767 104 13460ft 315kts
23-Jun-21 08:54 33.878768 -118.591790 72 16305ft 343kts
23-Jun-21 08:55 33.915792 -118.479578 70 18069ft 387kts
23-Jun-21 08:56 33.973732 -118.360951 56 19602ft 423kts
23-Jun-21 08:57 34.041547 -118.241456 58 21497ft 439kts
23-Jun-21 08:58 34.111507 -118.117644 59 23147ft 454kts
23-Jun-21 09:00 34.183447 -117.990248 59 24658ft 466kts
23-Jun-21 09:01 34.257107 -117.859182 59 26095ft 476kts
23-Jun-21 09:02 34.332176 -117.724667 59 27029ft 488kts
23-Jun-21 09:03 34.410137 -117.591231 57 27042ft 486kts
23-Jun-21 09:04 34.489614 -117.457995 57 27056ft 486kts
23-Jun-21 09:05 34.568391 -117.325353 57 27068ft 486kts
23-Jun-21 09:06 34.647351 -117.192399 57 27070ft 485kts
23-Jun-21 09:07 34.725926 -117.059043 57 27078ft 484kts
23-Jun-21 09:08 34.804455 -116.925707 57 27048ft 485kts
23-Jun-21 09:09 34.882202 -116.792334 57 27016ft 484kts
23-Jun-21 09:10 34.959666 -116.657875 58 27015ft 483kts
23-Jun-21 09:11 35.035762 -116.522601 58 27028ft 483kts
23-Jun-21 09:12 35.113268 -116.389685 51 27008ft 472kts
23-Jun-21 09:13 35.201983 -116.275127 48 26009ft 457kts
23-Jun-21 09:14 35.286663 -116.161046 50 24831ft 446kts
23-Jun-21 09:15 35.368400 -116.049210 50 22887ft 435kts
23-Jun-21 09:16 35.447629 -115.939963 50 20959ft 423kts
23-Jun-21 09:17 35.524859 -115.833045 49 19129ft 410kts
23-Jun-21 09:18 35.594984 -115.735835 49 18711ft 359kts
23-Jun-21 09:19 35.661861 -115.645835 48 17311ft 354kts
23-Jun-21 09:20 35.729269 -115.558022 40 15909ft 352kts
23-Jun-21 09:21 35.811259 -115.497511 29 14541ft 337kts
23-Jun-21 09:21 35.878192 -115.450713 29 13441ft 325kts
23-Jun-21 09:23 35.968917 -115.387268 29 11928ft 322kts
23-Jun-21 09:24 36.019241 -115.304853 94 10495ft 316kts
23-Jun-21 09:25 36.007565 -115.201395 95 9634ft 296kts
23-Jun-21 09:25 36.002862 -115.117724 95 8574ft 292kts
23-Jun-21 09:26 35.998618 -115.018518 90 6990ft 284kts
23-Jun-21 09:28 36.003914 -114.917767 55 5919ft 241kts
23-Jun-21 09:29 36.060439 -114.907789 325 5047ft 214kts
23-Jun-21 09:29 36.073716 -114.960417 270 4771ft 199kts
23-Jun-21 09:30 36.073754 -115.022988 267 3800ft 169kts
23-Jun-21 09:31 36.073706 -115.079751 268 2930ft 162kts
23-Jun-21 09:32 36.073714 -115.134186 267 2189ft 147kts
23-Jun-21 09:33 36.075250 -115.151312 333 2189ft 15kts
23-Jun-21 09:34 36.078014 -115.152319 77 2189ft 7kts
23-Jun-21 09:35 36.077892 -115.148988 94 2189ft 11kts
23-Jun-21 09:36 36.079548 -115.147680 53 2189ft 5kts
23-Jun-21 09:37 36.079855 -115.147144 55 2189ft 0kts

Navigation Log

Ident Type
Flight plan parsing failed, navigation log unavailable